Time;durP1;ratioP1;P1;durP2;ratioP2;P2;SDS_P1;SDS_P2;PMS_P1;PMS_P2;Temp;Humidity;BMP_temperature;BMP_pressure;BME280_temperature;BME280_humidity;BME280_pressure;Samples;Min_cycle;Max_cycle;Signal;HPM_P1;HPM_P2
2022/09/07 00:01:01;;;;;;;3.83;3.25;;;;;;;17.79;100.00;101119.91;4974036;28;20463;-68
2022/09/07 00:03:27;;;;;;;7.28;3.30;;;;;;;17.70;100.00;101124.25;4975761;28;20502;-69
2022/09/07 00:05:53;;;;;;;7.03;3.92;;;;;;;17.67;100.00;101135.72;4970644;28;20027;-68
2022/09/07 00:08:21;;;;;;;4.70;3.40;;;;;;;17.68;100.00;101123.69;4976293;28;20026;-69
2022/09/07 00:11:03;;;;;;;5.80;3.17;;;;;;;17.71;100.00;101107.56;4975945;28;20041;-70
2022/09/07 00:13:33;;;;;;;4.35;2.92;;;;;;;17.59;100.00;101106.09;4990814;28;20038;-68
2022/09/07 00:16:10;;;;;;;7.50;3.30;;;;;;;17.45;100.00;101095.66;4972943;28;20050;-67
2022/09/07 00:18:36;;;;;;;6.53;3.20;;;;;;;17.46;100.00;101091.00;4939006;28;20040;-70
2022/09/07 00:21:05;;;;;;;6.25;3.00;;;;;;;17.47;100.00;101093.47;4937899;29;20038;-70
2022/09/07 00:23:31;;;;;;;6.80;3.72;;;;;;;17.32;100.00;101091.47;4937414;29;20032;-71
2022/09/07 00:26:05;;;;;;;8.30;3.45;;;;;;;17.29;100.00;101091.19;4958677;28;20545;-70
2022/09/07 00:28:31;;;;;;;5.55;3.42;;;;;;;17.26;100.00;101100.75;4976328;28;20058;-67
2022/09/07 00:30:57;;;;;;;5.72;3.72;;;;;;;17.34;100.00;101088.47;4959976;28;20179;-68
2022/09/07 00:33:22;;;;;;;6.40;3.50;;;;;;;17.25;100.00;101098.25;4963167;28;20023;-69
2022/09/07 00:35:48;;;;;;;6.03;3.85;;;;;;;17.25;100.00;101090.06;4980179;28;20027;-70
2022/09/07 00:38:13;;;;;;;6.93;3.80;;;;;;;17.25;100.00;101081.84;4961760;28;20059;-68
2022/09/07 00:40:38;;;;;;;5.78;4.28;;;;;;;17.18;100.00;101084.81;4944357;28;20377;-69
2022/09/07 00:43:05;;;;;;;6.30;4.60;;;;;;;17.24;100.00;101077.47;4937086;29;20028;-70
2022/09/07 00:45:31;;;;;;;7.68;4.70;;;;;;;17.29;100.00;101059.19;4936835;29;20052;-68
2022/09/07 00:48:01;;;;;;;6.88;4.30;;;;;;;17.30;100.00;101049.06;4936994;29;20035;-69
2022/09/07 00:50:47;;;;;;;5.20;4.03;;;;;;;17.31;100.00;101059.72;4952566;28;20150;-69
2022/09/07 00:53:16;;;;;;;6.25;3.97;;;;;;;17.27;100.00;101044.13;4975012;28;20460;-68
2022/09/07 00:55:43;;;;;;;5.68;4.13;;;;;;;17.20;100.00;101044.38;4973404;28;20066;-68
2022/09/07 00:58:09;;;;;;;6.60;4.30;;;;;;;17.13;100.00;101043.78;4975159;28;20495;-69
2022/09/07 01:00:35;;;;;;;5.88;3.83;;;;;;;17.17;100.00;101040.25;4960714;28;20039;-69
2022/09/07 01:03:02;;;;;;;6.18;4.15;;;;;;;17.19;100.00;101031.78;4941952;28;20490;-68
2022/09/07 01:05:42;;;;;;;6.32;4.00;;;;;;;17.15;100.00;101039.69;4951711;28;20044;-69
2022/09/07 01:08:09;;;;;;;6.07;3.88;;;;;;;17.22;100.00;101052.31;4955796;28;20110;-69
2022/09/07 01:10:35;;;;;;;5.85;4.00;;;;;;;17.13;100.00;101050.06;4944551;28;20092;-68
2022/09/07 01:13:00;;;;;;;5.95;4.00;;;;;;;17.24;100.00;101040.03;4936894;28;20054;-68
2022/09/07 01:16:03;;;;;;;6.10;3.88;;;;;;;17.30;100.00;101044.44;4936451;29;20058;-68
2022/09/07 01:18:41;;;;;;;5.32;3.85;;;;;;;17.27;100.00;101044.13;4949067;28;20047;-70
2022/09/07 01:21:28;;;;;;;5.65;3.35;;;;;;;17.20;100.00;101044.38;4968375;28;20041;-69
2022/09/07 01:24:24;;;;;;;4.82;3.60;;;;;;;17.22;100.00;101052.31;4974531;28;20058;-70
2022/09/07 01:27:20;;;;;;;6.65;3.60;;;;;;;17.26;100.00;101050.69;4972905;28;20065;-70
2022/09/07 01:30:13;;;;;;;4.10;3.22;;;;;;;17.29;100.00;101045.50;4937539;28;20106;-70
2022/09/07 01:33:25;;;;;;;5.55;3.45;;;;;;;17.33;100.00;101051.25;4950707;29;20459;-70
2022/09/07 01:36:00;;;;;;;6.68;3.83;;;;;;;17.31;100.00;101056.19;4935868;29;20118;-69
2022/09/07 01:38:37;;;;;;;4.95;3.70;;;;;;;17.35;100.00;101043.63;4951691;28;20040;-68
2022/09/07 01:41:18;;;;;;;5.07;3.50;;;;;;;17.37;100.00;101052.38;4936017;29;20555;-68
2022/09/07 01:43:54;;;;;;;4.32;3.47;;;;;;;17.41;100.00;101056.25;4935993;29;20044;-68
2022/09/07 01:46:48;;;;;;;4.95;3.58;;;;;;;17.42;100.00;101057.91;4935929;29;20214;-69
2022/09/07 01:49:21;;;;;;;4.55;3.53;;;;;;;17.44;100.00;101050.25;4945770;28;20044;-69
2022/09/07 01:51:53;;;;;;;5.80;3.55;;;;;;;17.45;100.00;101045.56;4935638;29;20038;-68
2022/09/07 01:54:29;;;;;;;4.82;3.40;;;;;;;17.49;100.00;101042.03;4936994;28;20392;-69
2022/09/07 01:57:00;;;;;;;5.47;3.40;;;;;;;17.46;100.00;101052.72;4935723;29;20039;-71
2022/09/07 01:59:47;;;;;;;4.22;3.53;;;;;;;17.52;100.00;101055.19;4935501;28;20467;-70
2022/09/07 02:02:16;;;;;;;4.88;3.28;;;;;;;17.54;100.00;101053.03;4933507;29;20387;-70
2022/09/07 02:04:53;;;;;;;5.38;3.80;;;;;;;17.53;100.00;101043.16;4958178;28;20027;-68
2022/09/07 02:07:29;;;;;;;4.80;3.50;;;;;;;17.57;100.00;101054.38;4974085;28;20110;-70
2022/09/07 02:10:09;;;;;;;4.63;3.42;;;;;;;17.58;100.00;101049.75;4982273;28;20039;-69
2022/09/07 02:12:43;;;;;;;5.28;3.42;;;;;;;17.59;100.00;101045.91;4935361;29;20039;-70
2022/09/07 02:15:29;;;;;;;4.47;3.28;;;;;;;17.62;100.00;101048.09;4949785;28;20471;-69
2022/09/07 02:18:01;;;;;;;5.05;3.40;;;;;;;17.51;100.00;101047.25;4968558;28;20033;-71
2022/09/07 02:20:32;;;;;;;4.25;3.10;;;;;;;17.51;100.00;101047.25;4935306;29;20519;-71
2022/09/07 02:22:59;;;;;;;;;;;;;;;17.70;100.00;101042.94;4935885;29;20035;-70
2022/09/07 02:25:30;;;;;;;4.70;3.50;;;;;;;17.50;100.00;101049.16;4944658;28;20003;-68
2022/09/07 02:28:07;;;;;;;4.20;3.67;;;;;;;17.53;100.00;101042.34;4952182;28;20463;-69
2022/09/07 02:30:33;;;;;;;5.43;3.60;;;;;;;17.50;100.00;101043.69;4935231;29;20028;-70
2022/09/07 02:32:58;;;;;;;4.65;3.60;;;;;;;17.49;100.00;101042.03;4935420;29;20055;-70
2022/09/07 02:35:24;;;;;;;4.65;3.53;;;;;;;17.42;100.00;101046.13;4951744;28;20034;-70
2022/09/07 02:37:51;;;;;;;4.05;3.60;;;;;;;17.36;100.00;101045.25;4986477;28;20039;-70
2022/09/07 02:40:17;;;;;;;6.15;3.88;;;;;;;17.33;100.00;101043.06;4935074;28;20531;-68
2022/09/07 02:42:44;;;;;;;5.00;3.20;;;;;;;17.37;100.00;101052.38;4935175;29;20115;-69
2022/09/07 02:45:12;;;;;;;6.20;3.50;;;;;;;17.33;100.00;101048.53;4948175;28;20046;-71
2022/09/07 02:48:01;;;;;;;4.28;3.38;;;;;;;17.42;100.00;101046.13;4973465;28;20074;-70
2022/09/07 02:51:01;;;;;;;8.75;3.67;;;;;;;17.41;100.00;101049.94;4935356;29;20103;-72
2022/09/07 02:53:55;;;;;;;6.57;3.55;;;;;;;17.41;100.00;101039.00;4966144;28;20123;-71
2022/09/07 02:56:39;;;;;;;4.28;3.67;;;;;;;17.35;100.00;101047.19;4965661;28;20129;-71
2022/09/07 02:59:55;;;;;;;4.95;3.60;;;;;;;17.39;100.00;101044.72;4962035;28;20494;-70
2022/09/07 03:02:27;;;;;;;5.05;3.60;;;;;;;17.29;100.00;101047.44;4988123;28;20038;-70
2022/09/07 03:05:04;;;;;;;6.32;3.90;;;;;;;17.23;100.00;101052.03;4959087;28;20186;-70
2022/09/07 03:07:35;;;;;;;4.43;3.55;;;;;;;17.17;100.00;101051.19;4973275;28;20471;-71
2022/09/07 03:10:03;;;;;;;5.05;4.40;;;;;;;17.23;100.00;101059.44;4937270;28;20039;-70
2022/09/07 03:12:40;;;;;;;4.75;3.83;;;;;;;17.17;100.00;101051.19;4935680;29;20036;-71
2022/09/07 03:15:06;;;;;;;6.75;4.10;;;;;;;17.22;100.00;101050.38;4942497;28;20466;-69
2022/09/07 03:17:31;;;;;;;6.43;4.20;;;;;;;17.26;100.00;101047.97;4974026;28;20078;-71
2022/09/07 03:19:56;;;;;;;4.88;3.92;;;;;;;17.30;100.00;101044.44;4939077;28;20035;-69
2022/09/07 03:22:22;;;;;;;4.65;4.20;;;;;;;17.33;100.00;101040.31;4945855;28;20019;-69
2022/09/07 03:24:47;;;;;;;6.07;4.15;;;;;;;17.25;100.00;101035.38;4963308;28;20050;-69
2022/09/07 03:27:12;;;;;;;4.90;4.20;;;;;;;17.20;100.00;101027.16;4977150;28;20030;-71
2022/09/07 03:29:37;;;;;;;5.82;4.18;;;;;;;17.21;100.00;101039.72;4947427;28;20039;-69
2022/09/07 03:32:03;;;;;;;5.53;4.68;;;;;;;17.21;100.00;101042.44;4938350;29;20034;-70
2022/09/07 03:34:28;;;;;;;5.45;4.45;;;;;;;17.21;100.00;101050.66;4938018;29;20031;-69
2022/09/07 03:36:53;;;;;;;4.60;3.83;;;;;;;17.17;100.00;101040.25;4975355;28;20475;-71
2022/09/07 03:39:22;;;;;;;8.35;4.38;;;;;;;17.17;100.00;101029.31;4963411;28;20034;-71
2022/09/07 03:41:47;;;;;;;6.28;4.10;;;;;;;17.17;100.00;101032.03;4976350;28;20470;-69
2022/09/07 03:44:13;;;;;;;5.43;4.18;;;;;;;17.17;100.00;101045.72;4976057;28;20078;-70
2022/09/07 03:46:38;;;;;;;5.57;4.30;;;;;;;17.09;100.00;101043.50;4974391;28;20035;-68
2022/09/07 03:49:03;;;;;;;5.28;4.47;;;;;;;17.05;100.00;101042.34;4957052;28;20062;-69
2022/09/07 03:51:29;;;;;;;5.13;4.53;;;;;;;17.04;100.00;101040.69;4937989;29;20377;-69
2022/09/07 03:53:56;;;;;;;5.72;4.45;;;;;;;17.02;100.00;101034.69;4952398;29;20083;-70
2022/09/07 03:56:23;;;;;;;7.00;4.70;;;;;;;16.98;100.00;101041.75;4965581;28;20415;-69
2022/09/07 03:58:49;;;;;;;7.05;4.88;;;;;;;16.93;100.00;101030.81;4961380;28;20063;-70
2022/09/07 04:01:18;;;;;;;7.43;4.57;;;;;;;16.91;100.00;101019.28;4935589;29;20027;-69
2022/09/07 04:03:44;;;;;;;5.47;4.93;;;;;;;16.99;100.00;101016.06;4960562;28;20114;-69
2022/09/07 04:06:10;;;;;;;7.28;4.57;;;;;;;16.95;100.00;101015.78;4975026;28;20066;-69
2022/09/07 04:08:37;;;;;;;10.80;5.47;;;;;;;16.94;100.00;101008.69;4969799;28;20439;-68
2022/09/07 04:11:04;;;;;;;8.43;5.07;;;;;;;16.95;100.00;100999.41;4956699;28;20043;-68
2022/09/07 04:13:30;;;;;;;5.72;5.10;;;;;;;16.89;100.00;100997.69;4966642;28;20039;-70
2022/09/07 04:15:57;;;;;;;8.85;5.18;;;;;;;16.90;100.00;100993.06;4974546;28;20483;-71
2022/09/07 04:18:22;;;;;;;7.00;5.40;;;;;;;16.88;100.00;100992.50;4969138;28;20046;-70
2022/09/07 04:20:51;;;;;;;5.78;4.90;;;;;;;16.90;100.00;100990.34;4951930;29;20032;-69
2022/09/07 04:23:18;;;;;;;5.38;4.38;;;;;;;16.86;100.00;100983.72;4953333;28;20425;-71
2022/09/07 04:25:50;;;;;;;6.15;4.80;;;;;;;16.95;100.00;100988.47;4975579;28;20118;-71
2022/09/07 04:28:16;;;;;;;6.43;5.10;;;;;;;16.92;100.00;100999.91;4972468;28;20039;-68
2022/09/07 04:30:42;;;;;;;9.27;5.50;;;;;;;16.93;100.00;101011.66;4956482;29;20038;-70
2022/09/07 04:33:08;;;;;;;6.45;4.55;;;;;;;16.91;100.00;101019.28;4962789;28;20035;-68
2022/09/07 04:35:38;;;;;;;7.50;5.20;;;;;;;16.84;100.00;101012.13;4975686;28;20521;-71
2022/09/07 04:38:03;;;;;;;7.47;5.43;;;;;;;16.86;100.00;101017.31;4974205;28;20529;-69
2022/09/07 04:40:29;;;;;;;10.00;5.32;;;;;;;16.80;100.00;101012.91;4936738;29;20027;-72
2022/09/07 04:42:54;;;;;;;8.20;4.90;;;;;;;16.77;100.00;101018.91;4947008;28;20027;-71
2022/09/07 04:45:19;;;;;;;7.85;5.53;;;;;;;16.69;100.00;101001.09;4974970;28;20074;-71
2022/09/07 04:47:48;;;;;;;9.82;5.45;;;;;;;16.79;100.00;101014.00;4974991;28;20081;-69
2022/09/07 04:50:15;;;;;;;7.15;5.20;;;;;;;16.75;100.00;101013.69;4940062;28;20036;-70
2022/09/07 04:52:41;;;;;;;7.65;4.90;;;;;;;16.78;100.00;101006.88;4943100;28;20026;-69
2022/09/07 04:55:07;;;;;;;9.02;5.60;;;;;;;16.75;100.00;101010.97;4975154;28;20106;-69
2022/09/07 04:57:32;;;;;;;8.73;5.78;;;;;;;16.74;100.00;101003.88;4990240;28;20043;-70
2022/09/07 04:59:57;;;;;;;8.30;5.53;;;;;;;16.81;100.00;101004.44;4944293;28;20138;-70
2022/09/07 05:02:22;;;;;;;8.52;5.70;;;;;;;16.86;100.00;101006.38;4935518;28;20083;-70
2022/09/07 05:04:48;;;;;;;8.82;5.93;;;;;;;16.81;100.00;101009.09;4971531;28;20142;-68
2022/09/07 05:07:13;;;;;;;8.18;5.60;;;;;;;16.80;100.00;101000.09;4970547;28;20027;-70
2022/09/07 05:09:38;;;;;;;6.90;5.60;;;;;;;16.82;100.00;101005.28;4955100;28;20027;-69
2022/09/07 05:12:04;;;;;;;8.35;5.80;;;;;;;16.86;100.00;100994.63;4955421;28;20027;-69
2022/09/07 05:14:29;;;;;;;9.00;5.47;;;;;;;16.91;100.00;100989.22;4971993;28;20130;-71
2022/09/07 05:16:54;;;;;;;6.68;5.97;;;;;;;16.87;100.00;100991.66;4975041;28;20030;-69
2022/09/07 05:19:20;;;;;;;8.70;6.30;;;;;;;16.79;100.00;101001.16;4955289;28;20094;-71
2022/09/07 05:21:45;;;;;;;8.77;6.40;;;;;;;16.76;100.00;101000.88;4940164;29;20036;-70
2022/09/07 05:24:10;;;;;;;7.53;6.00;;;;;;;16.69;100.00;101000.28;4968196;28;20042;-69
2022/09/07 05:26:38;;;;;;;7.95;6.15;;;;;;;16.63;100.00;101007.59;4974386;28;20054;-69
2022/09/07 05:29:05;;;;;;;9.93;6.32;;;;;;;16.62;100.00;101005.94;4966568;28;20027;-71
2022/09/07 05:31:31;;;;;;;8.00;6.47;;;;;;;16.65;100.00;101005.41;4955479;28;20031;-70
2022/09/07 05:33:57;;;;;;;11.27;6.68;;;;;;;16.68;100.00;100995.88;4966211;28;20035;-69
2022/09/07 05:36:25;;;;;;;10.27;6.65;;;;;;;16.69;100.00;101001.09;4974914;28;20073;-70
2022/09/07 05:38:51;;;;;;;9.43;7.57;;;;;;;16.74;100.00;101001.13;4963367;28;20424;-68
2022/09/07 05:41:19;;;;;;;10.82;8.38;;;;;;;16.75;100.00;101008.22;4936019;29;20074;-71
2022/09/07 05:43:45;;;;;;;10.90;8.25;;;;;;;16.79;100.00;101012.09;4960532;28;20061;-68
2022/09/07 05:46:11;;;;;;;12.25;8.40;;;;;;;16.81;100.00;101006.38;4960703;28;20039;-68
2022/09/07 05:48:37;;;;;;;12.75;8.98;;;;;;;16.82;100.00;101005.28;4951349;28;20373;-69
2022/09/07 05:51:04;;;;;;;11.77;9.00;;;;;;;16.88;100.00;101008.88;4944588;28;20038;-71
2022/09/07 05:53:30;;;;;;;10.35;8.75;;;;;;;16.84;100.00;101014.03;4954643;28;20394;-68
2022/09/07 05:55:59;;;;;;;13.10;9.13;;;;;;;16.83;100.00;101007.75;4954733;28;20031;-71
2022/09/07 05:58:25;;;;;;;12.82;8.88;;;;;;;16.88;100.00;101014.34;4952593;28;20039;-69
2022/09/07 06:00:51;;;;;;;11.63;8.98;;;;;;;16.95;100.00;101025.88;4945267;29;20135;-69
2022/09/07 06:03:16;;;;;;;12.55;9.25;;;;;;;16.94;100.00;101026.97;4954665;28;20135;-69
2022/09/07 06:05:41;;;;;;;14.43;9.13;;;;;;;16.95;100.00;101032.19;4955756;28;20046;-69
2022/09/07 06:08:07;;;;;;;12.45;8.95;;;;;;;17.02;100.00;101037.41;4982894;28;20391;-71
2022/09/07 06:10:36;;;;;;;11.48;9.57;;;;;;;17.01;100.00;101041.22;4951154;28;20031;-69
2022/09/07 06:13:03;;;;;;;13.13;9.43;;;;;;;17.00;100.00;101034.13;4966926;28;20042;-69
2022/09/07 06:15:39;;;;;;;15.05;10.25;;;;;;;16.98;100.00;101036.28;4965096;28;20031;-70
2022/09/07 06:18:04;;;;;;;14.32;9.68;;;;;;;16.94;100.00;101029.69;4959582;28;20023;-69
2022/09/07 06:20:30;;;;;;;13.07;9.85;;;;;;;16.94;100.00;101026.97;4939749;29;20036;-69
2022/09/07 06:22:55;;;;;;;15.10;10.45;;;;;;;16.89;100.00;101025.03;4935434;29;20063;-68
2022/09/07 06:25:20;;;;;;;17.75;10.25;;;;;;;16.90;100.00;101028.59;4947501;29;20030;-70
2022/09/07 06:27:47;;;;;;;13.60;10.55;;;;;;;16.91;100.00;101041.16;4953232;28;20118;-70
2022/09/07 06:30:12;;;;;;;16.98;9.98;;;;;;;16.93;100.00;101047.22;4954794;29;20042;-68
2022/09/07 06:32:38;;;;;;;14.02;11.52;;;;;;;16.98;100.00;101047.22;4954925;28;20031;-68
2022/09/07 06:35:03;;;;;;;18.92;12.88;;;;;;;16.95;100.00;101051.34;4954025;28;20035;-69
2022/09/07 06:37:29;;;;;;;17.60;12.60;;;;;;;16.98;100.00;101048.06;4941012;28;20044;-73
2022/09/07 06:39:54;;;;;;;16.52;13.07;;;;;;;16.97;100.00;101051.06;4937871;29;20031;-70
2022/09/07 06:42:19;;;;;;;19.02;13.75;;;;;;;16.97;100.00;101049.16;4953098;28;20039;-71
2022/09/07 06:44:44;;;;;;;20.50;14.35;;;;;;;16.97;100.00;101057.34;4954315;28;20074;-71
2022/09/07 06:47:10;;;;;;;21.40;15.02;;;;;;;16.97;100.00;101062.00;4943798;28;20471;-69
2022/09/07 06:49:35;;;;;;;19.73;15.65;;;;;;;16.95;100.00;101053.22;4935095;29;20059;-69
2022/09/07 06:52:01;;;;;;;21.35;16.80;;;;;;;16.98;100.00;101045.34;4943035;28;20034;-69
2022/09/07 06:54:26;;;;;;;22.33;16.92;;;;;;;17.06;100.00;101052.22;4954531;28;20042;-68
2022/09/07 06:56:51;;;;;;;23.92;18.67;;;;;;;17.12;100.00;101053.91;4953124;28;20114;-68
2022/09/07 06:59:17;;;;;;;22.50;18.42;;;;;;;17.13;100.00;101052.78;4942301;28;20090;-69
2022/09/07 07:01:42;;;;;;;22.42;18.60;;;;;;;17.18;100.00;101058.31;4933005;29;20051;-70
2022/09/07 07:04:07;;;;;;;24.50;19.02;;;;;;;17.29;100.00;101058.38;4938436;29;20635;-69
2022/09/07 07:06:37;;;;;;;22.70;19.73;;;;;;;17.31;100.00;101059.72;4939128;28;20055;-71
2022/09/07 07:09:06;;;;;;;30.05;22.00;;;;;;;17.36;100.00;101057.03;4948155;29;20387;-68
2022/09/07 07:11:31;;;;;;;27.17;22.27;;;;;;;17.41;100.00;101066.34;4947573;29;20039;-69
2022/09/07 07:13:57;;;;;;;27.88;22.20;;;;;;;17.46;100.00;101069.13;4938674;29;20036;-70
2022/09/07 07:16:23;;;;;;;27.98;23.08;;;;;;;17.45;100.00;101062.84;4939445;29;20135;-68
2022/09/07 07:18:51;;;;;;;29.52;24.25;;;;;;;17.52;100.00;101060.66;4939008;29;20214;-73
2022/09/07 07:21:17;;;;;;;29.45;24.60;;;;;;;17.58;100.00;101066.16;4938491;29;20054;-65
2022/09/07 07:23:43;;;;;;;30.13;24.50;;;;;;;17.62;100.00;101064.53;4938579;29;20468;-68
2022/09/07 07:26:17;;;;;;;28.65;24.90;;;;;;;17.58;100.00;101066.16;4938257;28;20035;-70
2022/09/07 07:28:47;;;;;;;29.88;25.25;;;;;;;17.66;100.00;101071.13;4957784;28;20032;-70
2022/09/07 07:31:13;;;;;;;32.20;24.60;;;;;;;17.69;100.00;101073.31;4957351;28;20122;-71
2022/09/07 07:34:02;;;;;;;31.10;24.75;;;;;;;17.78;100.00;101074.44;4956669;28;20518;-72
2022/09/07 07:36:27;;;;;;;30.73;24.88;;;;;;;17.76;100.00;101082.13;4956299;28;20110;-70
2022/09/07 07:38:54;;;;;;;33.90;24.23;;;;;;;17.76;100.00;101081.31;4957177;28;20114;-68
2022/09/07 07:41:23;;;;;;;29.02;23.85;;;;;;;17.70;100.00;101085.94;4957464;28;20534;-70
2022/09/07 07:43:55;;;;;;;26.38;22.67;;;;;;;17.73;100.00;101079.91;4957188;28;20054;-69
2022/09/07 07:46:22;;;;;;;27.85;23.52;;;;;;;17.74;100.00;101092.50;4956251;28;20024;-69
2022/09/07 07:48:47;;;;;;;28.23;23.08;;;;;;;17.72;100.00;101081.00;4955891;28;20023;-69
2022/09/07 07:51:13;;;;;;;27.98;22.73;;;;;;;17.74;100.00;101086.19;4956338;28;20073;-69
2022/09/07 07:53:39;;;;;;;26.90;22.52;;;;;;;17.78;100.00;101088.13;4956403;28;20391;-70
2022/09/07 07:56:06;;;;;;;23.77;21.23;;;;;;;17.83;100.00;101087.31;4956956;28;20114;-68
2022/09/07 07:58:33;;;;;;;27.05;21.92;;;;;;;17.91;100.00;101095.06;4942687;28;20039;-70
2022/09/07 08:01:07;;;;;;;23.65;20.80;;;;;;;17.99;100.00;101096.47;4935206;29;20511;-72
2022/09/07 08:03:40;;;;;;;23.73;20.95;;;;;;;18.00;100.00;101098.94;4952691;28;20388;-70
2022/09/07 08:06:08;;;;;;;25.55;21.42;;;;;;;18.08;100.00;101102.25;4937721;28;20031;-71
2022/09/07 08:08:35;;;;;;;23.80;19.88;;;;;;;18.09;100.00;101098.41;4953383;28;20042;-71
2022/09/07 08:11:07;;;;;;;23.00;19.50;;;;;;;18.11;100.00;101091.56;4950914;28;20678;-70
2022/09/07 08:13:33;;;;;;;22.88;18.80;;;;;;;18.16;100.00;101104.44;4945866;28;20027;-69
2022/09/07 08:15:58;;;;;;;23.20;18.85;;;;;;;18.22;100.00;101109.69;4969545;28;20395;-70
2022/09/07 08:18:24;;;;;;;22.13;19.25;;;;;;;18.27;100.00;101099.81;4936938;29;20032;-69
2022/09/07 08:20:49;;;;;;;22.88;19.48;;;;;;;18.27;100.00;101105.28;4937601;29;20102;-69
2022/09/07 08:23:15;;;;;;;21.80;19.42;;;;;;;18.30;100.00;101102.00;4970940;28;20061;-69
2022/09/07 08:25:51;;;;;;;21.65;18.48;;;;;;;18.34;100.00;101108.59;4955319;28;20376;-70
2022/09/07 08:28:16;;;;;;;22.27;18.58;;;;;;;18.37;100.00;101103.41;4956107;28;20035;-69
2022/09/07 08:30:41;;;;;;;21.30;18.10;;;;;;;18.44;100.00;101096.84;4956524;28;20031;-70
2022/09/07 08:33:07;;;;;;;20.23;18.02;;;;;;;18.53;100.00;101108.91;4937548;28;20036;-70
2022/09/07 08:35:32;;;;;;;19.92;17.70;;;;;;;18.58;100.00;101112.50;4939644;28;20034;-69
2022/09/07 08:37:57;;;;;;;20.33;17.30;;;;;;;18.65;100.00;101111.41;4942136;29;20027;-69
2022/09/07 08:40:22;;;;;;;18.35;16.35;;;;;;;18.71;100.00;101113.06;4937271;28;20038;-69
2022/09/07 08:43:06;;;;;;;18.88;16.35;;;;;;;18.80;100.00;101108.66;4935727;29;20106;-68
2022/09/07 08:45:45;;;;;;;18.13;15.60;;;;;;;18.86;100.00;101106.78;4969091;28;20043;-69
2022/09/07 08:48:19;;;;;;;19.02;15.25;;;;;;;18.89;100.00;101120.75;4958937;28;20148;-69
2022/09/07 08:51:01;;;;;;;16.80;14.55;;;;;;;18.95;100.00;101119.66;4968313;28;20023;-70
2022/09/07 08:53:28;;;;;;;18.98;13.98;;;;;;;18.98;100.00;101115.53;4950353;28;20073;-69
2022/09/07 08:56:04;;;;;;;17.02;14.38;;;;;;;19.12;100.00;101113.06;4937796;29;20030;-68
2022/09/07 08:58:49;;;;;;;16.73;14.57;;;;;;;19.19;100.00;101116.34;4935690;29;20035;-70
2022/09/07 09:01:21;;;;;;;14.60;13.02;;;;;;;19.20;100.00;101117.16;4957751;28;20372;-70
2022/09/07 09:03:48;;;;;;;16.88;12.52;;;;;;;19.27;100.00;101109.47;4958207;28;21345;-70
2022/09/07 09:06:21;;;;;;;14.65;11.82;;;;;;;19.43;100.00;101121.22;4955594;28;20027;-68
2022/09/07 09:08:58;;;;;;;14.98;12.05;;;;;;;19.54;100.00;101116.56;4953563;28;20042;-69
2022/09/07 09:11:52;;;;;;;15.63;11.40;;;;;;;19.65;100.00;101113.47;4965492;28;20023;-68
2022/09/07 09:14:37;;;;;;;17.05;11.95;;;;;;;19.66;100.00;101123.38;4957227;28;20454;-69
2022/09/07 09:17:19;;;;;;;14.88;11.25;;;;;;;19.71;100.00;101111.53;4946873;29;20035;-68
2022/09/07 09:19:57;;;;;;;13.55;10.63;;;;;;;19.82;100.00;101115.09;4965343;28;20043;-68
2022/09/07 09:22:27;;;;;;;14.43;10.23;;;;;;;19.90;100.00;101114.53;4974893;28;20034;-69
2022/09/07 09:25:02;;;;;;;12.63;9.88;;;;;;;19.95;100.00;101114.50;4974020;28;20034;-68
2022/09/07 09:27:27;;;;;;;12.45;8.40;;;;;;;19.90;100.00;101113.69;4963994;28;20031;-71
2022/09/07 09:29:52;;;;;;;11.20;8.13;;;;;;;19.89;100.00;101121.13;4962864;28;20034;-70
2022/09/07 09:32:38;;;;;;;14.05;8.23;;;;;;;19.90;100.00;101128.25;4945164;28;20115;-70
2022/09/07 09:35:10;;;;;;;9.73;7.00;;;;;;;19.93;100.00;101115.88;4950693;28;20063;-73
2022/09/07 09:37:37;;;;;;;11.73;7.55;;;;;;;19.92;100.00;101119.75;4942123;28;20475;-70
2022/09/07 09:40:05;;;;;;;14.45;7.00;;;;;;;19.87;98.61;101126.06;4969563;28;20570;-69
2022/09/07 09:42:34;;;;;;;11.68;6.50;;;;;;;19.86;100.00;101116.19;4943728;28;20046;-72
2022/09/07 09:45:15;;;;;;;11.90;6.10;;;;;;;19.97;99.24;101114.22;4935871;29;20056;-69
2022/09/07 09:47:46;;;;;;;8.93;5.40;;;;;;;20.06;98.08;101119.94;4943876;28;20035;-71
2022/09/07 09:50:22;;;;;;;8.55;4.70;;;;;;;20.15;97.32;101115.50;4968907;28;20077;-73
2022/09/07 09:52:50;;;;;;;9.98;4.45;;;;;;;20.25;85.60;101120.13;4948999;28;20031;-70
2022/09/07 09:55:23;;;;;;;8.85;3.70;;;;;;;20.33;81.37;101114.81;4952774;28;20027;-70
2022/09/07 09:57:57;;;;;;;10.55;4.35;;;;;;;20.43;84.81;101115.91;4954778;28;20073;-73
2022/09/07 10:00:24;;;;;;;11.60;4.55;;;;;;;20.56;86.37;101120.72;4985166;28;20077;-73
2022/09/07 10:03:11;;;;;;;9.75;3.70;;;;;;;20.65;87.08;101116.31;4974831;28;20042;-73
2022/09/07 10:05:38;;;;;;;7.18;3.58;;;;;;;20.77;79.98;101112.38;4953200;28;20458;-73
2022/09/07 10:08:28;;;;;;;11.18;3.75;;;;;;;20.82;82.02;101112.31;4948804;28;20031;-73
2022/09/07 10:11:01;;;;;;;6.07;2.88;;;;;;;20.84;79.06;101110.13;4951752;28;20027;-70
2022/09/07 10:13:30;;;;;;;8.60;3.17;;;;;;;20.86;76.02;101113.38;4943229;28;20053;-71
2022/09/07 10:15:58;;;;;;;13.40;3.50;;;;;;;20.90;78.08;101100.72;4973910;28;20027;-72
2022/09/07 10:18:31;;;;;;;9.48;3.03;;;;;;;20.97;77.14;101095.69;4974024;28;20046;-70
2022/09/07 10:21:22;;;;;;;8.88;2.58;;;;;;;21.06;76.80;101087.59;4965936;28;20526;-70
2022/09/07 10:23:57;;;;;;;8.65;2.47;;;;;;;21.16;78.01;101086.72;4973964;28;20030;-70
2022/09/07 10:26:27;;;;;;;7.50;2.83;;;;;;;21.23;75.39;101092.69;4973688;28;20526;-70
2022/09/07 10:29:05;;;;;;;7.30;2.40;;;;;;;21.27;73.58;101095.69;4952141;28;20123;-72
2022/09/07 10:31:32;;;;;;;6.38;2.30;;;;;;;21.28;71.39;101097.31;4960915;28;20061;-70
2022/09/07 10:34:10;;;;;;;5.35;1.98;;;;;;;21.35;71.87;101098.63;4960971;28;20019;-70
2022/09/07 10:36:43;;;;;;;6.68;2.42;;;;;;;21.42;71.69;101098.25;4961285;28;20090;-71
2022/09/07 10:39:21;;;;;;;10.00;2.58;;;;;;;21.48;71.38;101096.28;4957522;28;20071;-71
2022/09/07 10:42:00;;;;;;;10.60;2.75;;;;;;;21.50;70.02;101092.16;4947982;29;20086;-71
2022/09/07 10:44:46;;;;;;;9.88;2.15;;;;;;;21.52;69.44;101095.44;4957789;28;20501;-70
2022/09/07 10:47:21;;;;;;;8.05;2.42;;;;;;;21.63;68.27;101087.84;4941274;28;20115;-70
2022/09/07 10:49:55;;;;;;;6.68;2.17;;;;;;;21.64;68.04;101084.00;4939009;29;20504;-70
2022/09/07 10:52:54;;;;;;;7.65;2.45;;;;;;;21.66;69.47;101083.69;4959497;28;20049;-69
2022/09/07 10:55:31;;;;;;;8.77;2.75;;;;;;;21.60;69.41;101082.94;4998195;28;20031;-71
2022/09/07 10:58:07;;;;;;;7.75;2.63;;;;;;;21.58;69.80;101080.47;4939024;29;20040;-70
2022/09/07 11:00:45;;;;;;;7.43;2.60;;;;;;;21.57;67.19;101087.13;4936593;29;20471;-70
2022/09/07 11:03:11;;;;;;;5.00;2.22;;;;;;;21.63;66.15;101082.34;4972228;28;20049;-69
2022/09/07 11:05:57;;;;;;;7.03;2.45;;;;;;;21.72;68.21;101086.09;4961670;28;20032;-70
2022/09/07 11:08:48;;;;;;;6.28;2.28;;;;;;;21.74;67.47;101070.09;4938443;29;20411;-69
2022/09/07 11:11:26;;;;;;;7.38;2.40;;;;;;;21.83;65.09;101075.78;4938852;29;20520;-71
2022/09/07 11:13:56;;;;;;;9.15;2.47;;;;;;;21.98;65.30;101083.00;4953470;29;20086;-71
2022/09/07 11:16:48;;;;;;;8.13;2.20;;;;;;;21.97;66.35;101075.03;4952472;28;20074;-71
2022/09/07 11:19:19;;;;;;;6.03;2.15;;;;;;;21.90;65.50;101072.66;4938437;29;20042;-70
2022/09/07 11:22:17;;;;;;;10.57;2.40;;;;;;;21.94;66.38;101073.72;4938516;29;20543;-71
2022/09/07 11:24:51;;;;;;;9.35;2.40;;;;;;;21.92;65.76;101067.66;4939749;28;20519;-69
2022/09/07 11:27:28;;;;;;;7.90;2.60;;;;;;;21.96;65.56;101074.22;4962641;28;20032;-69
2022/09/07 11:30:22;;;;;;;6.63;2.60;;;;;;;21.96;65.27;101065.94;4938589;29;20534;-68
2022/09/07 11:33:03;;;;;;;7.60;2.45;;;;;;;22.05;65.24;101066.91;4938462;29;20078;-69